sensor_id;sensor_type;location;lat;lon;timestamp;P1;durP1;ratioP1;P2;durP2;ratioP2
2049;SDS011;8478;49.208;8.806;2023-07-30T00:01:31;7.10;;;6.40;;
2049;SDS011;8478;49.208;8.806;2023-07-30T00:03:57;6.10;;;5.57;;
2049;SDS011;8478;49.208;8.806;2023-07-30T00:06:23;6.70;;;6.20;;
2049;SDS011;8478;49.208;8.806;2023-07-30T00:08:49;6.53;;;6.03;;
2049;SDS011;8478;49.208;8.806;2023-07-30T00:11:15;7.03;;;6.43;;
2049;SDS011;8478;49.208;8.806;2023-07-30T00:13:40;5.93;;;5.50;;
2049;SDS011;8478;49.208;8.806;2023-07-30T00:16:06;6.27;;;5.77;;
2049;SDS011;8478;49.208;8.806;2023-07-30T00:18:32;5.63;;;5.30;;
2049;SDS011;8478;49.208;8.806;2023-07-30T00:20:57;6.10;;;5.60;;
2049;SDS011;8478;49.208;8.806;2023-07-30T00:23:23;6.10;;;5.70;;
2049;SDS011;8478;49.208;8.806;2023-07-30T00:25:49;6.40;;;5.80;;
2049;SDS011;8478;49.208;8.806;2023-07-30T00:28:14;6.83;;;6.43;;
2049;SDS011;8478;49.208;8.806;2023-07-30T00:30:40;5.93;;;5.53;;
2049;SDS011;8478;49.208;8.806;2023-07-30T00:33:05;9.40;;;5.87;;
2049;SDS011;8478;49.208;8.806;2023-07-30T00:35:31;7.93;;;5.07;;
2049;SDS011;8478;49.208;8.806;2023-07-30T00:37:57;9.47;;;5.10;;
2049;SDS011;8478;49.208;8.806;2023-07-30T00:40:22;10.43;;;5.33;;
2049;SDS011;8478;49.208;8.806;2023-07-30T00:42:48;8.63;;;5.10;;
2049;SDS011;8478;49.208;8.806;2023-07-30T00:45:14;6.13;;;5.50;;
2049;SDS011;8478;49.208;8.806;2023-07-30T00:47:40;5.20;;;4.70;;
2049;SDS011;8478;49.208;8.806;2023-07-30T00:50:07;5.33;;;4.83;;
2049;SDS011;8478;49.208;8.806;2023-07-30T00:52:33;5.32;;;3.40;;
2049;SDS011;8478;49.208;8.806;2023-07-30T00:55:00;5.00;;;4.60;;
2049;SDS011;8478;49.208;8.806;2023-07-30T00:57:27;4.80;;;4.40;;
2049;SDS011;8478;49.208;8.806;2023-07-30T00:59:54;4.33;;;3.90;;
2049;SDS011;8478;49.208;8.806;2023-07-30T01:02:21;4.70;;;4.40;;
2049;SDS011;8478;49.208;8.806;2023-07-30T01:04:47;4.77;;;4.47;;
2049;SDS011;8478;49.208;8.806;2023-07-30T01:07:13;5.00;;;4.10;;
2049;SDS011;8478;49.208;8.806;2023-07-30T01:09:39;4.50;;;4.20;;
2049;SDS011;8478;49.208;8.806;2023-07-30T01:12:05;4.37;;;4.07;;
2049;SDS011;8478;49.208;8.806;2023-07-30T01:14:32;4.63;;;4.37;;
2049;SDS011;8478;49.208;8.806;2023-07-30T01:16:58;4.13;;;3.00;;
2049;SDS011;8478;49.208;8.806;2023-07-30T01:19:24;3.60;;;3.40;;
2049;SDS011;8478;49.208;8.806;2023-07-30T01:21:50;4.03;;;3.70;;
2049;SDS011;8478;49.208;8.806;2023-07-30T01:24:15;4.50;;;4.20;;
2049;SDS011;8478;49.208;8.806;2023-07-30T01:26:45;4.20;;;4.00;;
2049;SDS011;8478;49.208;8.806;2023-07-30T01:29:22;6.30;;;4.40;;
2049;SDS011;8478;49.208;8.806;2023-07-30T01:32:10;4.33;;;4.10;;
2049;SDS011;8478;49.208;8.806;2023-07-30T01:34:37;4.63;;;4.33;;
2049;SDS011;8478;49.208;8.806;2023-07-30T01:37:05;4.80;;;4.50;;
2049;SDS011;8478;49.208;8.806;2023-07-30T01:39:36;4.10;;;3.90;;
2049;SDS011;8478;49.208;8.806;2023-07-30T01:42:04;4.73;;;4.50;;
2049;SDS011;8478;49.208;8.806;2023-07-30T01:44:30;4.13;;;3.93;;
2049;SDS011;8478;49.208;8.806;2023-07-30T01:46:56;5.10;;;4.80;;
2049;SDS011;8478;49.208;8.806;2023-07-30T01:49:21;4.47;;;4.27;;
2049;SDS011;8478;49.208;8.806;2023-07-30T01:51:47;4.83;;;4.60;;
2049;SDS011;8478;49.208;8.806;2023-07-30T01:54:13;4.80;;;4.50;;
2049;SDS011;8478;49.208;8.806;2023-07-30T01:56:39;4.67;;;4.40;;
2049;SDS011;8478;49.208;8.806;2023-07-30T01:59:04;4.60;;;4.33;;
2049;SDS011;8478;49.208;8.806;2023-07-30T02:01:30;4.57;;;4.37;;
2049;SDS011;8478;49.208;8.806;2023-07-30T02:03:56;5.07;;;4.77;;
2049;SDS011;8478;49.208;8.806;2023-07-30T02:06:21;2.90;;;2.70;;
2049;SDS011;8478;49.208;8.806;2023-07-30T02:08:47;4.50;;;4.20;;
2049;SDS011;8478;49.208;8.806;2023-07-30T02:11:13;4.03;;;3.83;;
2049;SDS011;8478;49.208;8.806;2023-07-30T02:13:38;4.60;;;4.20;;
2049;SDS011;8478;49.208;8.806;2023-07-30T02:16:04;4.37;;;4.17;;
2049;SDS011;8478;49.208;8.806;2023-07-30T02:18:30;4.33;;;4.13;;
2049;SDS011;8478;49.208;8.806;2023-07-30T02:20:55;4.37;;;4.10;;
2049;SDS011;8478;49.208;8.806;2023-07-30T02:23:21;5.27;;;4.97;;
2049;SDS011;8478;49.208;8.806;2023-07-30T02:25:47;4.23;;;3.93;;
2049;SDS011;8478;49.208;8.806;2023-07-30T02:28:12;4.50;;;4.20;;
2049;SDS011;8478;49.208;8.806;2023-07-30T02:30:38;4.33;;;4.03;;
2049;SDS011;8478;49.208;8.806;2023-07-30T02:33:04;4.77;;;4.37;;
2049;SDS011;8478;49.208;8.806;2023-07-30T02:35:29;5.00;;;4.67;;
2049;SDS011;8478;49.208;8.806;2023-07-30T02:37:55;5.43;;;4.50;;
2049;SDS011;8478;49.208;8.806;2023-07-30T02:40:21;4.87;;;4.53;;
2049;SDS011;8478;49.208;8.806;2023-07-30T02:42:46;4.97;;;4.57;;
2049;SDS011;8478;49.208;8.806;2023-07-30T02:45:12;4.83;;;4.07;;
2049;SDS011;8478;49.208;8.806;2023-07-30T02:47:38;4.50;;;4.30;;
2049;SDS011;8478;49.208;8.806;2023-07-30T02:50:04;4.67;;;4.47;;
2049;SDS011;8478;49.208;8.806;2023-07-30T02:52:31;8.67;;;4.97;;
2049;SDS011;8478;49.208;8.806;2023-07-30T02:54:56;4.63;;;4.20;;
2049;SDS011;8478;49.208;8.806;2023-07-30T02:57:22;4.70;;;4.50;;
2049;SDS011;8478;49.208;8.806;2023-07-30T02:59:48;7.10;;;5.37;;
2049;SDS011;8478;49.208;8.806;2023-07-30T03:02:13;5.60;;;5.20;;
2049;SDS011;8478;49.208;8.806;2023-07-30T03:04:39;5.40;;;4.90;;
2049;SDS011;8478;49.208;8.806;2023-07-30T03:07:05;6.30;;;5.80;;
2049;SDS011;8478;49.208;8.806;2023-07-30T03:09:31;5.37;;;4.97;;
2049;SDS011;8478;49.208;8.806;2023-07-30T03:11:57;5.67;;;5.10;;
2049;SDS011;8478;49.208;8.806;2023-07-30T03:14:23;6.30;;;5.73;;
2049;SDS011;8478;49.208;8.806;2023-07-30T03:16:49;5.40;;;5.10;;
2049;SDS011;8478;49.208;8.806;2023-07-30T03:19:15;6.40;;;5.80;;
2049;SDS011;8478;49.208;8.806;2023-07-30T03:21:40;5.60;;;5.30;;
2049;SDS011;8478;49.208;8.806;2023-07-30T03:24:07;5.73;;;5.43;;
2049;SDS011;8478;49.208;8.806;2023-07-30T03:26:33;5.37;;;5.00;;
2049;SDS011;8478;49.208;8.806;2023-07-30T03:28:58;5.77;;;5.27;;
2049;SDS011;8478;49.208;8.806;2023-07-30T03:31:24;6.37;;;5.77;;
2049;SDS011;8478;49.208;8.806;2023-07-30T03:33:50;6.37;;;5.93;;
2049;SDS011;8478;49.208;8.806;2023-07-30T03:36:16;6.20;;;5.70;;
2049;SDS011;8478;49.208;8.806;2023-07-30T03:38:42;6.70;;;6.10;;
2049;SDS011;8478;49.208;8.806;2023-07-30T03:41:08;6.23;;;5.73;;
2049;SDS011;8478;49.208;8.806;2023-07-30T03:43:36;6.07;;;5.67;;
2049;SDS011;8478;49.208;8.806;2023-07-30T03:46:02;6.00;;;5.40;;
2049;SDS011;8478;49.208;8.806;2023-07-30T03:48:28;5.33;;;5.03;;
2049;SDS011;8478;49.208;8.806;2023-07-30T03:50:54;7.30;;;6.17;;
2049;SDS011;8478;49.208;8.806;2023-07-30T03:53:20;6.33;;;5.83;;
2049;SDS011;8478;49.208;8.806;2023-07-30T03:55:46;5.83;;;5.53;;
2049;SDS011;8478;49.208;8.806;2023-07-30T03:58:12;5.90;;;5.50;;
2049;SDS011;8478;49.208;8.806;2023-07-30T04:00:38;7.37;;;6.23;;
2049;SDS011;8478;49.208;8.806;2023-07-30T04:03:04;6.00;;;5.50;;
2049;SDS011;8478;49.208;8.806;2023-07-30T04:05:29;6.50;;;6.10;;
2049;SDS011;8478;49.208;8.806;2023-07-30T04:07:55;6.57;;;6.07;;
2049;SDS011;8478;49.208;8.806;2023-07-30T04:10:21;6.53;;;5.93;;
2049;SDS011;8478;49.208;8.806;2023-07-30T04:12:47;6.63;;;6.23;;
2049;SDS011;8478;49.208;8.806;2023-07-30T04:15:14;5.53;;;5.13;;
2049;SDS011;8478;49.208;8.806;2023-07-30T04:17:40;5.22;;;4.85;;
2049;SDS011;8478;49.208;8.806;2023-07-30T04:20:06;7.03;;;6.63;;
2049;SDS011;8478;49.208;8.806;2023-07-30T04:22:32;6.70;;;6.30;;
2049;SDS011;8478;49.208;8.806;2023-07-30T04:24:58;6.50;;;6.03;;
2049;SDS011;8478;49.208;8.806;2023-07-30T04:27:24;6.10;;;5.70;;
2049;SDS011;8478;49.208;8.806;2023-07-30T04:29:49;6.60;;;6.20;;
2049;SDS011;8478;49.208;8.806;2023-07-30T04:32:15;7.40;;;6.87;;
2049;SDS011;8478;49.208;8.806;2023-07-30T04:34:41;6.43;;;6.03;;
2049;SDS011;8478;49.208;8.806;2023-07-30T04:37:06;6.50;;;6.10;;
2049;SDS011;8478;49.208;8.806;2023-07-30T04:39:32;7.50;;;7.00;;
2049;SDS011;8478;49.208;8.806;2023-07-30T04:41:58;6.78;;;6.28;;
2049;SDS011;8478;49.208;8.806;2023-07-30T04:44:24;8.97;;;8.33;;
2049;SDS011;8478;49.208;8.806;2023-07-30T04:46:49;8.07;;;7.67;;
2049;SDS011;8478;49.208;8.806;2023-07-30T04:49:15;8.60;;;8.00;;
2049;SDS011;8478;49.208;8.806;2023-07-30T04:51:41;7.37;;;6.97;;
2049;SDS011;8478;49.208;8.806;2023-07-30T04:54:06;7.97;;;7.40;;
2049;SDS011;8478;49.208;8.806;2023-07-30T04:56:32;7.73;;;7.20;;
2049;SDS011;8478;49.208;8.806;2023-07-30T04:58:58;7.40;;;7.00;;
2049;SDS011;8478;49.208;8.806;2023-07-30T05:01:24;7.20;;;6.80;;
2049;SDS011;8478;49.208;8.806;2023-07-30T05:03:50;6.97;;;6.57;;
2049;SDS011;8478;49.208;8.806;2023-07-30T05:06:15;8.47;;;8.00;;
2049;SDS011;8478;49.208;8.806;2023-07-30T05:08:41;8.07;;;7.47;;
2049;SDS011;8478;49.208;8.806;2023-07-30T05:11:07;7.60;;;7.20;;
2049;SDS011;8478;49.208;8.806;2023-07-30T05:13:32;7.17;;;6.70;;
2049;SDS011;8478;49.208;8.806;2023-07-30T05:15:58;7.63;;;7.13;;
2049;SDS011;8478;49.208;8.806;2023-07-30T05:18:24;6.43;;;6.13;;
2049;SDS011;8478;49.208;8.806;2023-07-30T05:20:49;7.07;;;6.67;;
2049;SDS011;8478;49.208;8.806;2023-07-30T05:23:15;9.20;;;7.10;;
2049;SDS011;8478;49.208;8.806;2023-07-30T05:25:41;7.60;;;7.10;;
2049;SDS011;8478;49.208;8.806;2023-07-30T05:28:07;8.10;;;7.50;;
2049;SDS011;8478;49.208;8.806;2023-07-30T05:30:32;7.70;;;7.20;;
2049;SDS011;8478;49.208;8.806;2023-07-30T05:32:58;8.40;;;7.80;;
2049;SDS011;8478;49.208;8.806;2023-07-30T05:35:24;8.60;;;8.10;;
2049;SDS011;8478;49.208;8.806;2023-07-30T05:37:49;8.17;;;7.50;;
2049;SDS011;8478;49.208;8.806;2023-07-30T05:40:15;9.00;;;8.50;;
2049;SDS011;8478;49.208;8.806;2023-07-30T05:42:41;8.00;;;7.30;;
2049;SDS011;8478;49.208;8.806;2023-07-30T05:45:07;8.93;;;8.33;;
2049;SDS011;8478;49.208;8.806;2023-07-30T05:47:33;9.60;;;8.90;;
2049;SDS011;8478;49.208;8.806;2023-07-30T05:49:58;9.00;;;8.50;;
2049;SDS011;8478;49.208;8.806;2023-07-30T05:52:24;8.50;;;8.00;;
2049;SDS011;8478;49.208;8.806;2023-07-30T05:54:50;7.77;;;7.27;;
2049;SDS011;8478;49.208;8.806;2023-07-30T05:57:15;8.10;;;7.70;;
2049;SDS011;8478;49.208;8.806;2023-07-30T05:59:41;8.43;;;7.60;;
2049;SDS011;8478;49.208;8.806;2023-07-30T06:02:07;8.30;;;7.70;;
2049;SDS011;8478;49.208;8.806;2023-07-30T06:04:32;7.57;;;6.93;;
2049;SDS011;8478;49.208;8.806;2023-07-30T06:07:02;7.77;;;7.20;;
2049;SDS011;8478;49.208;8.806;2023-07-30T06:09:28;6.93;;;6.43;;
2049;SDS011;8478;49.208;8.806;2023-07-30T06:11:56;8.23;;;7.57;;
2049;SDS011;8478;49.208;8.806;2023-07-30T06:14:22;8.00;;;7.23;;
2049;SDS011;8478;49.208;8.806;2023-07-30T06:16:49;10.90;;;6.70;;
2049;SDS011;8478;49.208;8.806;2023-07-30T06:19:14;8.47;;;7.67;;
2049;SDS011;8478;49.208;8.806;2023-07-30T06:21:40;7.33;;;6.70;;
2049;SDS011;8478;49.208;8.806;2023-07-30T06:24:06;7.50;;;6.90;;
2049;SDS011;8478;49.208;8.806;2023-07-30T06:26:31;6.73;;;6.17;;
2049;SDS011;8478;49.208;8.806;2023-07-30T06:28:57;7.17;;;6.47;;
2049;SDS011;8478;49.208;8.806;2023-07-30T06:31:23;14.20;;;7.00;;
2049;SDS011;8478;49.208;8.806;2023-07-30T06:33:49;12.20;;;6.93;;
2049;SDS011;8478;49.208;8.806;2023-07-30T06:36:15;10.70;;;6.63;;
2049;SDS011;8478;49.208;8.806;2023-07-30T06:38:40;9.17;;;7.43;;
2049;SDS011;8478;49.208;8.806;2023-07-30T06:41:06;6.70;;;6.30;;
2049;SDS011;8478;49.208;8.806;2023-07-30T06:43:32;9.53;;;6.20;;
2049;SDS011;8478;49.208;8.806;2023-07-30T06:45:57;7.20;;;6.37;;
2049;SDS011;8478;49.208;8.806;2023-07-30T06:48:23;7.30;;;6.23;;
2049;SDS011;8478;49.208;8.806;2023-07-30T06:50:49;6.60;;;6.10;;
2049;SDS011;8478;49.208;8.806;2023-07-30T06:53:15;8.30;;;6.27;;
2049;SDS011;8478;49.208;8.806;2023-07-30T06:55:40;5.87;;;5.40;;
2049;SDS011;8478;49.208;8.806;2023-07-30T06:58:06;7.00;;;6.50;;
2049;SDS011;8478;49.208;8.806;2023-07-30T07:00:32;6.33;;;5.90;;
2049;SDS011;8478;49.208;8.806;2023-07-30T07:02:57;6.27;;;5.80;;
2049;SDS011;8478;49.208;8.806;2023-07-30T07:05:23;6.23;;;5.83;;
2049;SDS011;8478;49.208;8.806;2023-07-30T07:07:49;6.50;;;6.10;;
2049;SDS011;8478;49.208;8.806;2023-07-30T07:10:15;7.00;;;6.50;;
2049;SDS011;8478;49.208;8.806;2023-07-30T07:12:40;6.13;;;5.83;;
2049;SDS011;8478;49.208;8.806;2023-07-30T07:15:06;5.67;;;5.37;;
2049;SDS011;8478;49.208;8.806;2023-07-30T07:17:33;6.50;;;5.90;;
2049;SDS011;8478;49.208;8.806;2023-07-30T07:20:00;5.83;;;5.53;;
2049;SDS011;8478;49.208;8.806;2023-07-30T07:22:25;5.77;;;5.37;;
2049;SDS011;8478;49.208;8.806;2023-07-30T07:24:51;6.17;;;5.83;;
2049;SDS011;8478;49.208;8.806;2023-07-30T07:27:18;5.70;;;5.40;;
2049;SDS011;8478;49.208;8.806;2023-07-30T07:29:44;5.97;;;5.47;;
2049;SDS011;8478;49.208;8.806;2023-07-30T07:32:10;5.60;;;5.33;;
2049;SDS011;8478;49.208;8.806;2023-07-30T07:34:35;6.13;;;5.70;;
2049;SDS011;8478;49.208;8.806;2023-07-30T07:37:01;5.13;;;4.83;;
2049;SDS011;8478;49.208;8.806;2023-07-30T07:39:28;5.83;;;5.43;;
2049;SDS011;8478;49.208;8.806;2023-07-30T07:41:53;5.23;;;4.93;;
2049;SDS011;8478;49.208;8.806;2023-07-30T07:44:20;5.43;;;5.10;;
2049;SDS011;8478;49.208;8.806;2023-07-30T07:46:46;5.80;;;5.43;;
2049;SDS011;8478;49.208;8.806;2023-07-30T07:49:12;5.37;;;5.07;;
2049;SDS011;8478;49.208;8.806;2023-07-30T07:51:38;5.33;;;4.93;;
2049;SDS011;8478;49.208;8.806;2023-07-30T07:54:03;4.95;;;4.65;;
2049;SDS011;8478;49.208;8.806;2023-07-30T07:56:30;5.30;;;4.90;;
2049;SDS011;8478;49.208;8.806;2023-07-30T07:58:56;4.97;;;4.67;;
2049;SDS011;8478;49.208;8.806;2023-07-30T08:01:22;5.40;;;5.03;;
2049;SDS011;8478;49.208;8.806;2023-07-30T08:03:48;5.30;;;5.00;;
2049;SDS011;8478;49.208;8.806;2023-07-30T08:06:14;5.17;;;4.87;;
2049;SDS011;8478;49.208;8.806;2023-07-30T08:08:39;5.73;;;5.33;;
2049;SDS011;8478;49.208;8.806;2023-07-30T08:11:08;5.07;;;4.77;;
2049;SDS011;8478;49.208;8.806;2023-07-30T08:13:34;5.90;;;5.57;;
2049;SDS011;8478;49.208;8.806;2023-07-30T08:16:00;6.00;;;5.50;;
2049;SDS011;8478;49.208;8.806;2023-07-30T08:18:27;6.17;;;5.77;;
2049;SDS011;8478;49.208;8.806;2023-07-30T08:20:53;5.83;;;5.43;;
2049;SDS011;8478;49.208;8.806;2023-07-30T08:23:19;6.07;;;5.63;;
2049;SDS011;8478;49.208;8.806;2023-07-30T08:25:45;5.70;;;5.40;;
2049;SDS011;8478;49.208;8.806;2023-07-30T08:28:10;5.73;;;5.33;;
2049;SDS011;8478;49.208;8.806;2023-07-30T08:30:36;5.93;;;5.63;;
2049;SDS011;8478;49.208;8.806;2023-07-30T08:33:02;5.90;;;5.60;;
2049;SDS011;8478;49.208;8.806;2023-07-30T08:35:28;6.10;;;5.80;;
2049;SDS011;8478;49.208;8.806;2023-07-30T08:37:54;6.00;;;5.70;;
2049;SDS011;8478;49.208;8.806;2023-07-30T08:40:23;6.10;;;5.80;;
2049;SDS011;8478;49.208;8.806;2023-07-30T08:42:53;5.50;;;5.17;;
2049;SDS011;8478;49.208;8.806;2023-07-30T08:45:20;6.40;;;6.00;;
2049;SDS011;8478;49.208;8.806;2023-07-30T08:47:46;6.17;;;5.67;;
2049;SDS011;8478;49.208;8.806;2023-07-30T08:50:12;6.97;;;6.57;;
2049;SDS011;8478;49.208;8.806;2023-07-30T08:52:39;6.77;;;6.37;;
2049;SDS011;8478;49.208;8.806;2023-07-30T08:55:05;6.53;;;6.13;;
2049;SDS011;8478;49.208;8.806;2023-07-30T08:57:32;6.47;;;5.97;;
2049;SDS011;8478;49.208;8.806;2023-07-30T09:02:34;7.20;;;6.80;;
2049;SDS011;8478;49.208;8.806;2023-07-30T09:05:05;6.93;;;6.50;;
2049;SDS011;8478;49.208;8.806;2023-07-30T09:07:31;6.60;;;6.30;;
2049;SDS011;8478;49.208;8.806;2023-07-30T09:09:57;7.17;;;6.77;;
2049;SDS011;8478;49.208;8.806;2023-07-30T09:12:28;6.83;;;6.53;;
2049;SDS011;8478;49.208;8.806;2023-07-30T09:14:58;6.87;;;6.53;;
2049;SDS011;8478;49.208;8.806;2023-07-30T09:17:24;6.30;;;6.00;;
2049;SDS011;8478;49.208;8.806;2023-07-30T09:19:51;6.70;;;6.20;;
2049;SDS011;8478;49.208;8.806;2023-07-30T09:22:35;7.63;;;7.13;;
2049;SDS011;8478;49.208;8.806;2023-07-30T09:25:07;7.43;;;6.90;;
2049;SDS011;8478;49.208;8.806;2023-07-30T09:27:33;6.87;;;6.37;;
2049;SDS011;8478;49.208;8.806;2023-07-30T09:30:00;6.50;;;6.10;;
2049;SDS011;8478;49.208;8.806;2023-07-30T09:32:31;6.47;;;6.07;;
2049;SDS011;8478;49.208;8.806;2023-07-30T09:35:05;6.70;;;6.40;;
2049;SDS011;8478;49.208;8.806;2023-07-30T09:37:32;6.00;;;5.70;;
2049;SDS011;8478;49.208;8.806;2023-07-30T09:40:01;6.30;;;5.90;;
2049;SDS011;8478;49.208;8.806;2023-07-30T09:42:27;6.30;;;5.97;;
2049;SDS011;8478;49.208;8.806;2023-07-30T09:44:53;6.60;;;6.10;;
2049;SDS011;8478;49.208;8.806;2023-07-30T09:47:25;6.40;;;6.10;;
2049;SDS011;8478;49.208;8.806;2023-07-30T09:49:51;6.30;;;5.90;;
2049;SDS011;8478;49.208;8.806;2023-07-30T09:52:18;6.30;;;5.90;;
2049;SDS011;8478;49.208;8.806;2023-07-30T09:54:45;6.05;;;5.65;;
2049;SDS011;8478;49.208;8.806;2023-07-30T09:57:11;7.03;;;6.63;;
2049;SDS011;8478;49.208;8.806;2023-07-30T09:59:37;5.90;;;5.43;;
2049;SDS011;8478;49.208;8.806;2023-07-30T10:02:03;6.03;;;5.63;;
2049;SDS011;8478;49.208;8.806;2023-07-30T10:04:30;6.13;;;5.73;;
2049;SDS011;8478;49.208;8.806;2023-07-30T10:07:03;6.00;;;5.70;;
2049;SDS011;8478;49.208;8.806;2023-07-30T10:09:36;6.43;;;6.13;;
2049;SDS011;8478;49.208;8.806;2023-07-30T10:12:10;6.27;;;5.97;;
2049;SDS011;8478;49.208;8.806;2023-07-30T10:14:40;6.47;;;6.17;;
2049;SDS011;8478;49.208;8.806;2023-07-30T10:17:09;6.57;;;6.17;;
2049;SDS011;8478;49.208;8.806;2023-07-30T10:19:35;6.57;;;6.17;;
2049;SDS011;8478;49.208;8.806;2023-07-30T10:22:19;6.90;;;6.50;;
2049;SDS011;8478;49.208;8.806;2023-07-30T10:24:58;6.57;;;6.17;;
2049;SDS011;8478;49.208;8.806;2023-07-30T10:27:35;6.50;;;6.10;;
2049;SDS011;8478;49.208;8.806;2023-07-30T10:32:38;7.50;;;6.90;;
2049;SDS011;8478;49.208;8.806;2023-07-30T10:38:17;7.00;;;6.50;;
2049;SDS011;8478;49.208;8.806;2023-07-30T10:40:59;10.20;;;6.50;;
2049;SDS011;8478;49.208;8.806;2023-07-30T10:43:31;5.00;;;4.50;;
2049;SDS011;8478;49.208;8.806;2023-07-30T10:46:00;7.10;;;6.43;;
2049;SDS011;8478;49.208;8.806;2023-07-30T10:48:29;8.40;;;5.73;;
2049;SDS011;8478;49.208;8.806;2023-07-30T10:51:00;6.67;;;6.00;;
2049;SDS011;8478;49.208;8.806;2023-07-30T10:53:27;6.00;;;5.60;;
2049;SDS011;8478;49.208;8.806;2023-07-30T10:55:53;6.60;;;6.00;;
2049;SDS011;8478;49.208;8.806;2023-07-30T10:58:19;6.40;;;6.00;;
2049;SDS011;8478;49.208;8.806;2023-07-30T11:00:48;5.50;;;5.20;;
2049;SDS011;8478;49.208;8.806;2023-07-30T11:03:14;6.07;;;5.77;;
2049;SDS011;8478;49.208;8.806;2023-07-30T11:05:39;6.40;;;5.80;;
2049;SDS011;8478;49.208;8.806;2023-07-30T11:08:05;4.30;;;4.00;;
2049;SDS011;8478;49.208;8.806;2023-07-30T11:10:31;6.37;;;5.80;;
2049;SDS011;8478;49.208;8.806;2023-07-30T11:12:57;5.50;;;5.20;;
2049;SDS011;8478;49.208;8.806;2023-07-30T11:15:23;6.00;;;5.60;;
2049;SDS011;8478;49.208;8.806;2023-07-30T11:17:51;5.60;;;4.20;;
2049;SDS011;8478;49.208;8.806;2023-07-30T11:20:24;5.90;;;5.50;;
2049;SDS011;8478;49.208;8.806;2023-07-30T11:22:53;5.63;;;5.33;;
2049;SDS011;8478;49.208;8.806;2023-07-30T11:25:19;4.73;;;4.43;;
2049;SDS011;8478;49.208;8.806;2023-07-30T11:27:45;5.50;;;5.10;;
2049;SDS011;8478;49.208;8.806;2023-07-30T11:30:12;5.70;;;5.20;;
2049;SDS011;8478;49.208;8.806;2023-07-30T11:32:37;5.50;;;5.20;;
2049;SDS011;8478;49.208;8.806;2023-07-30T11:35:04;6.07;;;5.47;;
2049;SDS011;8478;49.208;8.806;2023-07-30T11:37:31;5.50;;;5.13;;
2049;SDS011;8478;49.208;8.806;2023-07-30T11:39:57;5.47;;;5.17;;
2049;SDS011;8478;49.208;8.806;2023-07-30T11:42:23;5.33;;;4.70;;
2049;SDS011;8478;49.208;8.806;2023-07-30T11:44:49;5.20;;;4.80;;
2049;SDS011;8478;49.208;8.806;2023-07-30T11:47:22;5.17;;;4.87;;
2049;SDS011;8478;49.208;8.806;2023-07-30T11:49:54;4.83;;;4.53;;
2049;SDS011;8478;49.208;8.806;2023-07-30T11:52:21;5.03;;;4.70;;
2049;SDS011;8478;49.208;8.806;2023-07-30T11:54:46;4.70;;;4.50;;
2049;SDS011;8478;49.208;8.806;2023-07-30T11:57:12;5.47;;;5.07;;
2049;SDS011;8478;49.208;8.806;2023-07-30T11:59:38;5.10;;;4.80;;
2049;SDS011;8478;49.208;8.806;2023-07-30T12:02:07;5.03;;;4.73;;
2049;SDS011;8478;49.208;8.806;2023-07-30T12:04:44;5.57;;;5.07;;
2049;SDS011;8478;49.208;8.806;2023-07-30T12:07:10;4.67;;;4.37;;
2049;SDS011;8478;49.208;8.806;2023-07-30T12:09:36;5.63;;;5.17;;
2049;SDS011;8478;49.208;8.806;2023-07-30T12:12:03;5.03;;;4.73;;
2049;SDS011;8478;49.208;8.806;2023-07-30T12:14:52;5.43;;;5.00;;
2049;SDS011;8478;49.208;8.806;2023-07-30T12:17:19;5.10;;;4.80;;
2049;SDS011;8478;49.208;8.806;2023-07-30T12:19:45;5.10;;;4.60;;
2049;SDS011;8478;49.208;8.806;2023-07-30T12:22:11;5.30;;;4.90;;
2049;SDS011;8478;49.208;8.806;2023-07-30T12:24:37;4.53;;;4.33;;
2049;SDS011;8478;49.208;8.806;2023-07-30T12:27:02;5.00;;;4.60;;
2049;SDS011;8478;49.208;8.806;2023-07-30T12:29:28;5.73;;;5.20;;
2049;SDS011;8478;49.208;8.806;2023-07-30T12:31:54;4.70;;;4.40;;
2049;SDS011;8478;49.208;8.806;2023-07-30T12:34:21;5.90;;;5.37;;
2049;SDS011;8478;49.208;8.806;2023-07-30T12:36:48;11.63;;;4.97;;
2049;SDS011;8478;49.208;8.806;2023-07-30T12:39:13;15.90;;;6.10;;
2049;SDS011;8478;49.208;8.806;2023-07-30T12:41:39;36.57;;;7.90;;
2049;SDS011;8478;49.208;8.806;2023-07-30T12:44:05;29.47;;;8.40;;
2049;SDS011;8478;49.208;8.806;2023-07-30T12:46:31;32.10;;;7.23;;
2049;SDS011;8478;49.208;8.806;2023-07-30T12:48:57;13.80;;;6.07;;
2049;SDS011;8478;49.208;8.806;2023-07-30T12:51:29;10.48;;;4.18;;
2049;SDS011;8478;49.208;8.806;2023-07-30T12:53:55;6.90;;;4.90;;
2049;SDS011;8478;49.208;8.806;2023-07-30T12:56:21;13.67;;;5.40;;
2049;SDS011;8478;49.208;8.806;2023-07-30T12:58:47;8.37;;;5.17;;
2049;SDS011;8478;49.208;8.806;2023-07-30T13:01:12;4.93;;;4.50;;
2049;SDS011;8478;49.208;8.806;2023-07-30T13:03:38;5.77;;;4.67;;
2049;SDS011;8478;49.208;8.806;2023-07-30T13:06:04;5.07;;;4.13;;
2049;SDS011;8478;49.208;8.806;2023-07-30T13:08:29;10.83;;;5.30;;
2049;SDS011;8478;49.208;8.806;2023-07-30T13:10:55;5.67;;;4.83;;
2049;SDS011;8478;49.208;8.806;2023-07-30T13:13:21;4.53;;;4.23;;
2049;SDS011;8478;49.208;8.806;2023-07-30T13:15:48;5.07;;;4.57;;
2049;SDS011;8478;49.208;8.806;2023-07-30T13:18:13;5.33;;;4.87;;
2049;SDS011;8478;49.208;8.806;2023-07-30T13:20:39;5.30;;;4.20;;
2049;SDS011;8478;49.208;8.806;2023-07-30T13:23:05;5.07;;;4.70;;
2049;SDS011;8478;49.208;8.806;2023-07-30T13:25:30;4.73;;;4.17;;
2049;SDS011;8478;49.208;8.806;2023-07-30T13:27:56;4.70;;;4.30;;
2049;SDS011;8478;49.208;8.806;2023-07-30T13:30:22;5.17;;;4.57;;
2049;SDS011;8478;49.208;8.806;2023-07-30T13:32:47;4.50;;;4.20;;
2049;SDS011;8478;49.208;8.806;2023-07-30T13:35:13;6.80;;;4.37;;
2049;SDS011;8478;49.208;8.806;2023-07-30T13:37:39;4.87;;;4.40;;
2049;SDS011;8478;49.208;8.806;2023-07-30T13:40:05;5.13;;;4.80;;
2049;SDS011;8478;49.208;8.806;2023-07-30T13:42:31;4.83;;;4.50;;
2049;SDS011;8478;49.208;8.806;2023-07-30T13:44:57;4.50;;;4.10;;
2049;SDS011;8478;49.208;8.806;2023-07-30T13:47:22;5.20;;;4.73;;
2049;SDS011;8478;49.208;8.806;2023-07-30T13:49:48;4.20;;;3.83;;
2049;SDS011;8478;49.208;8.806;2023-07-30T13:52:14;4.97;;;4.50;;
2049;SDS011;8478;49.208;8.806;2023-07-30T13:54:40;8.90;;;4.53;;
2049;SDS011;8478;49.208;8.806;2023-07-30T13:57:07;5.30;;;4.53;;
2049;SDS011;8478;49.208;8.806;2023-07-30T13:59:32;9.03;;;5.07;;
2049;SDS011;8478;49.208;8.806;2023-07-30T14:01:58;5.17;;;4.67;;
2049;SDS011;8478;49.208;8.806;2023-07-30T14:04:24;6.20;;;4.87;;
2049;SDS011;8478;49.208;8.806;2023-07-30T14:06:50;4.77;;;4.47;;
2049;SDS011;8478;49.208;8.806;2023-07-30T14:09:16;4.77;;;4.27;;
2049;SDS011;8478;49.208;8.806;2023-07-30T14:11:41;7.37;;;4.30;;
2049;SDS011;8478;49.208;8.806;2023-07-30T14:14:10;6.80;;;4.67;;
2049;SDS011;8478;49.208;8.806;2023-07-30T14:16:36;5.03;;;4.60;;
2049;SDS011;8478;49.208;8.806;2023-07-30T14:19:01;4.97;;;4.00;;
2049;SDS011;8478;49.208;8.806;2023-07-30T14:21:27;6.97;;;5.13;;
2049;SDS011;8478;49.208;8.806;2023-07-30T14:23:53;6.50;;;4.20;;
2049;SDS011;8478;49.208;8.806;2023-07-30T14:26:18;6.37;;;4.33;;
2049;SDS011;8478;49.208;8.806;2023-07-30T14:28:44;4.87;;;4.47;;
2049;SDS011;8478;49.208;8.806;2023-07-30T14:31:10;6.57;;;4.20;;
2049;SDS011;8478;49.208;8.806;2023-07-30T14:33:36;4.57;;;4.20;;
2049;SDS011;8478;49.208;8.806;2023-07-30T14:36:03;5.03;;;4.73;;
2049;SDS011;8478;49.208;8.806;2023-07-30T14:38:29;4.43;;;4.13;;
2049;SDS011;8478;49.208;8.806;2023-07-30T14:40:56;4.80;;;4.50;;
2049;SDS011;8478;49.208;8.806;2023-07-30T14:43:22;5.10;;;4.70;;
2049;SDS011;8478;49.208;8.806;2023-07-30T14:45:48;4.43;;;4.13;;
2049;SDS011;8478;49.208;8.806;2023-07-30T14:48:14;5.30;;;4.90;;
2049;SDS011;8478;49.208;8.806;2023-07-30T14:50:40;4.67;;;4.37;;
2049;SDS011;8478;49.208;8.806;2023-07-30T14:53:06;5.60;;;4.37;;
2049;SDS011;8478;49.208;8.806;2023-07-30T14:55:31;5.57;;;4.47;;
2049;SDS011;8478;49.208;8.806;2023-07-30T14:57:57;5.33;;;4.90;;
2049;SDS011;8478;49.208;8.806;2023-07-30T15:00:23;6.70;;;4.50;;
2049;SDS011;8478;49.208;8.806;2023-07-30T15:02:51;4.43;;;4.03;;
2049;SDS011;8478;49.208;8.806;2023-07-30T15:05:18;5.93;;;4.17;;
2049;SDS011;8478;49.208;8.806;2023-07-30T15:07:43;5.37;;;4.60;;
2049;SDS011;8478;49.208;8.806;2023-07-30T15:10:09;5.37;;;4.50;;
2049;SDS011;8478;49.208;8.806;2023-07-30T15:12:35;4.13;;;3.80;;
2049;SDS011;8478;49.208;8.806;2023-07-30T15:15:01;5.07;;;4.10;;
2049;SDS011;8478;49.208;8.806;2023-07-30T15:17:27;4.40;;;4.00;;
2049;SDS011;8478;49.208;8.806;2023-07-30T15:19:53;5.00;;;4.37;;